Time;durP1;ratioP1;P1;durP2;ratioP2;P2;SDS_P1;SDS_P2;PMS_P1;PMS_P2;Temp;Humidity;BMP_temperature;BMP_pressure;BME280_temperature;BME280_humidity;BME280_pressure;Samples;Min_cycle;Max_cycle;Signal;HPM_P1;HPM_P2
2023/04/07 00:01:34;;;;;;;29.57;20.30;;;9.90;99.90;;;;;;5019384;28;20044;-81
2023/04/07 00:04:00;;;;;;;35.10;21.73;;;9.90;99.90;;;;;;5035857;28;20043;-84
2023/04/07 00:06:26;;;;;;;30.10;19.83;;;9.80;99.90;;;;;;5019329;28;20431;-83
2023/04/07 00:08:52;;;;;;;34.10;18.53;;;9.80;99.90;;;;;;5003108;28;20028;-82
2023/04/07 00:11:17;;;;;;;31.53;19.37;;;9.80;99.90;;;;;;5002922;28;20079;-82
2023/04/07 00:13:43;;;;;;;31.47;19.93;;;9.80;99.90;;;;;;5019334;28;20071;-82
2023/04/07 00:16:09;;;;;;;32.53;19.90;;;9.80;99.90;;;;;;5019231;28;20033;-81
2023/04/07 00:18:35;;;;;;;31.43;17.20;;;9.80;99.90;;;;;;5019139;28;20125;-81
2023/04/07 00:21:00;;;;;;;26.70;17.03;;;9.80;99.90;;;;;;5019222;28;20029;-82
2023/04/07 00:23:26;;;;;;;29.93;17.73;;;9.70;99.90;;;;;;5019104;28;20052;-81
2023/04/07 00:25:52;;;;;;;28.07;16.87;;;9.80;99.90;;;;;;5053271;28;20556;-82
2023/04/07 00:28:17;;;;;;;31.77;16.93;;;9.70;99.90;;;;;;5018863;28;20123;-81
2023/04/07 00:30:43;;;;;;;28.70;16.57;;;9.70;99.90;;;;;;5035320;28;20072;-83
2023/04/07 00:33:09;;;;;;;26.40;16.37;;;9.80;99.90;;;;;;5002330;28;20105;-81
2023/04/07 00:35:35;;;;;;;25.93;16.13;;;9.70;99.90;;;;;;5053204;28;20499;-82
2023/04/07 00:38:01;;;;;;;27.50;16.63;;;9.70;99.90;;;;;;5019034;28;20029;-82
2023/04/07 00:40:27;;;;;;;26.27;16.13;;;9.70;99.90;;;;;;5053156;28;20032;-82
2023/04/07 00:42:52;;;;;;;30.60;17.43;;;9.70;99.90;;;;;;5019330;28;20385;-81
2023/04/07 00:45:18;;;;;;;32.17;17.33;;;9.70;99.90;;;;;;5035459;28;20052;-82
2023/04/07 00:47:44;;;;;;;30.90;16.77;;;9.70;99.90;;;;;;5035717;28;20172;-83
2023/04/07 00:50:10;;;;;;;30.37;16.83;;;9.70;99.90;;;;;;5002480;28;20068;-82
2023/04/07 00:52:36;;;;;;;25.67;14.00;;;9.70;99.90;;;;;;5035755;28;20492;-82
2023/04/07 00:55:01;;;;;;;25.27;15.57;;;9.70;99.90;;;;;;5019495;28;20037;-82
2023/04/07 00:57:27;;;;;;;25.67;14.33;;;9.60;99.90;;;;;;5039277;28;20033;-82
2023/04/07 00:59:55;;;;;;;23.00;13.47;;;9.70;99.90;;;;;;5039361;28;20366;-83
2023/04/07 01:02:26;;;;;;;20.10;12.37;;;9.60;99.90;;;;;;5022609;28;20123;-82
2023/04/07 01:05:22;;;;;;;21.20;12.10;;;9.60;99.90;;;;;;5056681;28;20389;-79
2023/04/07 01:08:04;;;;;;;19.97;12.30;;;9.60;99.90;;;;;;5047995;28;20017;-79
2023/04/07 01:10:58;;;;;;;24.00;13.43;;;9.60;99.90;;;;;;5038765;28;20025;-79
2023/04/07 01:13:27;;;;;;;;;;;9.50;99.90;;;;;;5039174;28;20025;-79
2023/04/07 01:15:57;;;;;;;18.93;11.33;;;9.50;99.90;;;;;;5038782;28;19905;-79
2023/04/07 01:18:34;;;;;;;20.53;11.13;;;9.50;99.90;;;;;;5038512;28;20112;-79
2023/04/07 01:21:06;;;;;;;21.87;11.70;;;9.50;99.90;;;;;;5038722;28;20029;-79
2023/04/07 01:24:08;;;;;;;19.03;10.23;;;9.50;99.90;;;;;;5039155;28;20470;-78
2023/04/07 01:26:34;;;;;;;21.23;11.23;;;9.50;99.90;;;;;;5038937;28;20033;-79
2023/04/07 01:29:03;;;;;;;20.20;10.57;;;9.50;99.90;;;;;;5038492;28;20401;-79
2023/04/07 01:31:29;;;;;;;18.70;10.30;;;9.50;99.90;;;;;;5038454;28;20116;-79
2023/04/07 01:33:58;;;;;;;23.27;11.77;;;9.50;99.90;;;;;;5035222;28;20140;-79
2023/04/07 01:36:27;;;;;;;20.03;9.83;;;9.40;99.90;;;;;;5018786;28;20048;-79
2023/04/07 01:38:53;;;;;;;21.10;10.30;;;9.40;99.90;;;;;;5035338;28;20032;-79
2023/04/07 01:41:20;;;;;;;27.13;11.93;;;9.40;99.90;;;;;;5035550;28;20381;-79
2023/04/07 01:43:47;;;;;;;21.53;11.20;;;9.40;99.90;;;;;;5035166;28;20025;-79
2023/04/07 01:46:14;;;;;;;21.40;12.57;;;9.40;99.90;;;;;;5019016;28;20400;-80
2023/04/07 01:48:41;;;;;;;19.40;12.07;;;9.40;99.90;;;;;;5035514;28;20030;-79
2023/04/07 01:51:10;;;;;;;21.63;11.40;;;9.40;99.90;;;;;;5034951;28;20029;-79
2023/04/07 01:53:37;;;;;;;20.77;12.80;;;9.40;99.90;;;;;;5034708;28;20041;-79
2023/04/07 01:56:03;;;;;;;23.00;11.53;;;9.40;99.90;;;;;;5034759;28;20025;-79
2023/04/07 01:58:29;;;;;;;19.77;11.23;;;9.40;99.90;;;;;;5034594;28;20022;-79
2023/04/07 02:00:55;;;;;;;19.37;10.83;;;9.40;99.90;;;;;;5018505;28;20052;-79
2023/04/07 02:03:42;;;;;;;23.67;12.20;;;9.40;99.90;;;;;;5034779;28;20053;-78
2023/04/07 02:06:11;;;;;;;22.97;11.83;;;9.40;99.90;;;;;;5050726;28;20072;-79
2023/04/07 02:08:41;;;;;;;24.37;12.40;;;9.30;99.90;;;;;;5034434;28;20022;-79
2023/04/07 02:11:09;;;;;;;24.60;12.40;;;9.30;99.90;;;;;;5034331;28;20079;-79
2023/04/07 02:13:37;;;;;;;21.30;12.20;;;9.30;99.90;;;;;;5034648;28;20064;-79
2023/04/07 02:16:05;;;;;;;22.33;11.93;;;9.30;99.90;;;;;;5034677;28;20028;-80
2023/04/07 02:18:31;;;;;;;23.40;13.23;;;9.30;99.90;;;;;;5034676;28;20533;-78
2023/04/07 02:20:59;;;;;;;26.30;12.63;;;9.20;99.90;;;;;;5034331;28;20029;-79
2023/04/07 02:23:25;;;;;;;20.77;11.43;;;9.20;99.90;;;;;;5017779;28;20150;-79
2023/04/07 02:25:50;;;;;;;25.97;12.83;;;9.20;99.90;;;;;;5034606;28;20065;-79
2023/04/07 02:28:16;;;;;;;26.07;12.53;;;9.20;99.90;;;;;;5017685;28;20056;-80
2023/04/07 02:30:41;;;;;;;22.87;12.13;;;9.20;99.90;;;;;;5017556;28;20120;-80
2023/04/07 02:33:07;;;;;;;24.93;13.10;;;9.20;99.90;;;;;;5034193;28;20037;-79
2023/04/07 02:35:33;;;;;;;24.60;12.30;;;9.20;99.90;;;;;;5020671;28;20064;-80
2023/04/07 02:37:58;;;;;;;20.07;11.20;;;9.20;99.90;;;;;;5037336;28;20499;-79
2023/04/07 02:40:24;;;;;;;22.00;12.67;;;9.20;99.90;;;;;;5020941;28;20017;-79
2023/04/07 02:42:50;;;;;;;25.50;12.70;;;9.20;99.90;;;;;;5020790;28;20389;-79
2023/04/07 02:45:15;;;;;;;22.93;12.17;;;9.20;99.90;;;;;;5020735;28;20022;-79
2023/04/07 02:47:41;;;;;;;24.67;13.33;;;9.20;99.90;;;;;;5054970;28;20040;-80
2023/04/07 02:50:07;;;;;;;24.60;13.30;;;9.20;99.90;;;;;;5037184;28;20032;-80
2023/04/07 02:52:33;;;;;;;24.60;12.73;;;9.20;99.90;;;;;;5037080;28;20021;-79
2023/04/07 02:54:58;;;;;;;25.60;13.00;;;9.20;99.90;;;;;;5036978;28;20119;-79
2023/04/07 02:57:24;;;;;;;24.00;12.40;;;9.20;99.90;;;;;;5020895;28;20032;-79
2023/04/07 02:59:50;;;;;;;21.30;12.27;;;9.20;99.90;;;;;;5020806;28;20022;-79
2023/04/07 03:02:15;;;;;;;26.87;13.67;;;9.20;99.90;;;;;;5020483;28;20049;-79
2023/04/07 03:04:41;;;;;;;25.03;14.27;;;9.20;99.90;;;;;;5020330;28;20115;-79
2023/04/07 03:07:07;;;;;;;27.33;13.93;;;9.20;99.90;;;;;;5036859;28;20029;-80
2023/04/07 03:09:33;;;;;;;25.23;13.70;;;9.20;99.90;;;;;;5020195;28;20025;-79
2023/04/07 03:11:58;;;;;;;27.27;13.27;;;9.20;99.90;;;;;;5036465;28;20020;-79
2023/04/07 03:14:24;;;;;;;24.70;15.13;;;9.20;99.90;;;;;;5020063;28;20025;-80
2023/04/07 03:16:50;;;;;;;30.40;14.83;;;9.20;99.90;;;;;;5036152;28;20056;-79
2023/04/07 03:19:15;;;;;;;30.70;15.20;;;9.30;99.90;;;;;;5036003;28;20060;-78
2023/04/07 03:21:41;;;;;;;27.70;14.20;;;9.30;99.90;;;;;;5020135;28;20067;-79
2023/04/07 03:24:07;;;;;;;25.30;14.10;;;9.20;99.90;;;;;;5035982;28;20464;-79
2023/04/07 03:26:33;;;;;;;24.50;14.37;;;9.20;99.90;;;;;;5036843;28;20376;-80
2023/04/07 03:28:59;;;;;;;32.30;15.43;;;9.30;99.90;;;;;;5019847;28;20503;-80
2023/04/07 03:31:24;;;;;;;30.33;15.20;;;9.20;99.90;;;;;;5036336;28;20036;-79
2023/04/07 03:33:50;;;;;;;29.13;13.97;;;9.20;99.90;;;;;;5018285;28;20084;-80
2023/04/07 03:36:17;;;;;;;31.97;15.83;;;9.20;99.90;;;;;;5019711;28;20370;-79
2023/04/07 03:38:43;;;;;;;24.87;13.67;;;9.20;99.90;;;;;;5036230;28;20029;-79
2023/04/07 03:41:09;;;;;;;25.80;13.90;;;9.20;99.90;;;;;;5036666;28;20020;-80
2023/04/07 03:43:34;;;;;;;29.53;15.73;;;9.30;99.90;;;;;;5019633;28;20443;-80
2023/04/07 03:46:00;;;;;;;31.10;15.17;;;9.30;99.90;;;;;;5036071;28;20033;-80
2023/04/07 03:48:26;;;;;;;26.30;14.70;;;9.20;99.90;;;;;;5053941;28;20078;-79
2023/04/07 03:50:51;;;;;;;30.03;16.43;;;9.20;99.90;;;;;;5018976;28;20037;-78
2023/04/07 03:53:18;;;;;;;25.30;14.70;;;9.30;99.90;;;;;;5019210;28;20035;-79
2023/04/07 03:55:44;;;;;;;29.97;15.47;;;9.20;99.90;;;;;;5019333;28;20025;-79
2023/04/07 03:58:10;;;;;;;28.33;14.83;;;9.20;99.90;;;;;;5035829;28;20136;-79
2023/04/07 04:00:35;;;;;;;27.37;14.07;;;9.20;99.90;;;;;;5035792;28;20533;-79
2023/04/07 04:03:01;;;;;;;32.63;15.50;;;9.20;99.90;;;;;;5035781;28;20041;-79
2023/04/07 04:05:27;;;;;;;24.57;14.97;;;9.20;99.90;;;;;;5035681;28;20070;-79
2023/04/07 04:07:53;;;;;;;31.80;14.80;;;9.20;99.90;;;;;;5044603;28;20020;-80
2023/04/07 04:10:19;;;;;;;28.90;15.03;;;9.20;99.90;;;;;;5055533;28;20032;-79
2023/04/07 04:12:46;;;;;;;30.63;15.20;;;9.20;99.90;;;;;;5069058;28;20020;-80
2023/04/07 04:15:12;;;;;;;28.50;15.27;;;9.20;99.90;;;;;;5063898;28;20028;-80
2023/04/07 04:17:38;;;;;;;28.63;14.93;;;9.20;99.90;;;;;;5058988;28;20024;-79
2023/04/07 04:20:04;;;;;;;28.20;14.10;;;9.20;99.90;;;;;;5055240;28;20388;-79
2023/04/07 04:22:30;;;;;;;25.40;14.13;;;9.20;99.90;;;;;;5055252;28;20020;-80
2023/04/07 04:24:56;;;;;;;31.30;15.07;;;9.20;99.90;;;;;;5038968;28;20078;-80
2023/04/07 04:27:22;;;;;;;25.43;13.37;;;9.30;99.90;;;;;;5055269;28;20539;-79
2023/04/07 04:29:47;;;;;;;28.13;14.33;;;9.30;99.90;;;;;;5054969;28;20031;-80
2023/04/07 04:32:13;;;;;;;31.13;13.87;;;9.30;99.90;;;;;;5022251;28;20028;-79
2023/04/07 04:34:41;;;;;;;24.20;14.07;;;9.30;99.90;;;;;;5022010;28;20078;-82
2023/04/07 04:37:06;;;;;;;29.90;12.90;;;9.30;99.90;;;;;;5073237;28;20021;-80
2023/04/07 04:39:32;;;;;;;24.70;13.47;;;9.30;99.90;;;;;;5038514;28;20055;-79
2023/04/07 04:41:58;;;;;;;28.30;14.33;;;9.40;99.90;;;;;;5055148;28;20032;-80
2023/04/07 04:44:24;;;;;;;29.87;14.43;;;9.30;99.90;;;;;;5022644;28;20052;-79
2023/04/07 04:46:51;;;;;;;29.40;14.57;;;9.30;99.90;;;;;;5020060;28;20028;-80
2023/04/07 04:49:17;;;;;;;26.27;13.87;;;9.30;99.90;;;;;;5031392;28;20039;-80
2023/04/07 04:51:44;;;;;;;28.17;15.57;;;9.30;99.90;;;;;;5038324;28;20166;-79
2023/04/07 04:54:09;;;;;;;28.77;14.07;;;9.30;99.90;;;;;;5025876;28;20094;-78
2023/04/07 04:56:35;;;;;;;25.10;13.10;;;9.30;99.90;;;;;;5034436;28;20025;-78
2023/04/07 04:59:02;;;;;;;27.43;13.10;;;9.30;99.90;;;;;;5034846;28;20079;-79
2023/04/07 05:01:27;;;;;;;34.13;13.87;;;9.40;99.90;;;;;;5036993;28;20504;-79
2023/04/07 05:03:53;;;;;;;29.27;13.20;;;9.40;99.90;;;;;;5017603;28;20037;-79
2023/04/07 05:06:19;;;;;;;23.73;12.33;;;9.40;99.90;;;;;;5050217;28;20035;-79
2023/04/07 05:08:45;;;;;;;22.97;12.43;;;9.40;99.90;;;;;;5054769;28;20029;-79
2023/04/07 05:11:11;;;;;;;29.37;12.53;;;9.40;99.90;;;;;;5021279;28;20041;-79
2023/04/07 05:13:36;;;;;;;33.17;14.27;;;9.40;99.90;;;;;;5037373;28;20063;-79
2023/04/07 05:16:02;;;;;;;30.87;12.73;;;9.40;99.90;;;;;;5035704;28;20028;-79
2023/04/07 05:18:28;;;;;;;25.80;13.10;;;9.40;99.90;;;;;;5054330;28;20025;-79
2023/04/07 05:20:53;;;;;;;28.10;12.00;;;9.40;99.90;;;;;;5018475;28;20107;-78
2023/04/07 05:23:19;;;;;;;24.37;11.47;;;9.40;99.90;;;;;;5018347;28;20033;-79
2023/04/07 05:25:45;;;;;;;28.93;13.03;;;9.40;99.90;;;;;;5018275;28;20570;-79
2023/04/07 05:28:10;;;;;;;26.20;11.53;;;9.40;99.90;;;;;;5001973;28;20017;-79
2023/04/07 05:30:36;;;;;;;25.27;11.60;;;9.40;99.90;;;;;;5018190;28;20095;-79
2023/04/07 05:33:02;;;;;;;26.27;12.23;;;9.40;99.90;;;;;;5034813;28;20032;-79
2023/04/07 05:35:27;;;;;;;27.57;13.13;;;9.40;99.90;;;;;;5014849;28;20124;-79
2023/04/07 05:37:53;;;;;;;25.77;12.30;;;9.40;99.90;;;;;;5031508;28;20476;-79
2023/04/07 05:40:19;;;;;;;24.17;11.77;;;9.40;99.90;;;;;;5020373;28;20544;-79
2023/04/07 05:42:44;;;;;;;24.73;11.80;;;9.40;99.90;;;;;;5018114;28;20029;-79
2023/04/07 05:45:10;;;;;;;26.93;12.40;;;9.40;99.90;;;;;;5013986;28;20037;-79
2023/04/07 05:47:36;;;;;;;29.63;13.13;;;9.40;99.90;;;;;;5051120;28;20033;-79
2023/04/07 05:50:02;;;;;;;24.30;12.63;;;9.40;99.90;;;;;;5045864;28;20025;-79
2023/04/07 05:52:27;;;;;;;24.23;11.73;;;9.40;99.90;;;;;;5025568;28;20497;-79
2023/04/07 05:54:53;;;;;;;27.10;12.27;;;9.40;99.90;;;;;;5030188;28;20036;-78
2023/04/07 05:57:19;;;;;;;25.83;11.67;;;9.40;99.90;;;;;;5053913;28;20531;-79
2023/04/07 05:59:45;;;;;;;24.83;11.50;;;9.40;99.90;;;;;;5020779;28;20063;-79
2023/04/07 06:02:10;;;;;;;23.93;11.87;;;9.40;99.90;;;;;;5038001;28;20500;-79
2023/04/07 06:04:38;;;;;;;33.20;12.27;;;9.40;99.90;;;;;;5037542;28;20061;-79
2023/04/07 06:07:04;;;;;;;24.80;11.60;;;9.40;99.90;;;;;;5033420;28;20036;-79
2023/04/07 06:09:29;;;;;;;27.60;13.70;;;9.40;99.90;;;;;;5037814;28;20037;-79
2023/04/07 06:11:55;;;;;;;27.30;13.70;;;9.40;99.90;;;;;;5054263;28;20512;-80
2023/04/07 06:14:21;;;;;;;26.77;13.03;;;9.40;99.90;;;;;;5051782;28;20512;-79
2023/04/07 06:16:46;;;;;;;27.70;12.07;;;9.40;99.90;;;;;;5037654;28;20068;-79
2023/04/07 06:19:12;;;;;;;28.43;13.67;;;9.40;99.90;;;;;;5054267;28;20032;-80
2023/04/07 06:21:38;;;;;;;24.10;12.10;;;9.40;99.90;;;;;;5037613;28;20040;-80
2023/04/07 06:24:05;;;;;;;26.63;13.27;;;9.50;99.90;;;;;;5054094;28;20388;-79
2023/04/07 06:26:31;;;;;;;23.13;12.17;;;9.40;99.90;;;;;;5053956;28;20114;-79
2023/04/07 06:28:57;;;;;;;26.60;13.50;;;9.50;99.90;;;;;;5054259;28;20434;-79
2023/04/07 06:31:24;;;;;;;28.20;13.67;;;9.50;99.90;;;;;;5037437;28;20033;-79
2023/04/07 06:33:50;;;;;;;29.03;12.90;;;9.50;99.90;;;;;;5054229;28;20036;-79
2023/04/07 06:36:16;;;;;;;30.73;13.67;;;9.50;99.90;;;;;;5047235;28;20052;-79
2023/04/07 06:38:42;;;;;;;29.03;13.80;;;9.50;99.90;;;;;;5012882;28;20025;-80
2023/04/07 06:41:11;;;;;;;27.03;14.17;;;9.50;99.90;;;;;;5018737;28;20030;-79
2023/04/07 06:43:37;;;;;;;28.53;14.63;;;9.50;99.90;;;;;;5033799;28;20029;-79
2023/04/07 06:46:03;;;;;;;25.03;12.43;;;9.50;99.90;;;;;;5041326;28;20059;-79
2023/04/07 06:48:28;;;;;;;28.10;13.57;;;9.50;99.90;;;;;;5055277;28;20029;-79
2023/04/07 06:50:54;;;;;;;22.60;12.53;;;9.50;99.90;;;;;;5020228;28;20409;-79
2023/04/07 06:53:20;;;;;;;23.13;12.37;;;9.50;99.90;;;;;;5032893;28;20033;-78
2023/04/07 06:55:45;;;;;;;20.27;11.70;;;9.60;99.90;;;;;;5015010;28;20047;-79
2023/04/07 06:58:11;;;;;;;24.00;11.43;;;9.60;99.90;;;;;;5053620;28;20506;-79
2023/04/07 07:00:37;;;;;;;16.27;9.03;;;9.60;99.90;;;;;;5053510;28;20493;-79
2023/04/07 07:03:02;;;;;;;16.30;7.77;;;9.70;99.90;;;;;;5036423;28;20477;-79
2023/04/07 07:05:28;;;;;;;17.50;8.50;;;9.60;99.90;;;;;;5037459;28;20030;-79
2023/04/07 07:07:54;;;;;;;20.70;7.93;;;9.60;99.90;;;;;;5039362;28;20036;-78
2023/04/07 07:10:21;;;;;;;17.73;7.70;;;9.60;99.90;;;;;;5033433;28;20033;-79
2023/04/07 07:12:50;;;;;;;13.10;5.60;;;9.60;99.90;;;;;;5052790;28;20056;-79
2023/04/07 07:15:16;;;;;;;15.00;7.23;;;9.70;99.90;;;;;;5037000;28;20064;-80
2023/04/07 07:17:41;;;;;;;12.70;6.40;;;9.70;99.90;;;;;;5020293;28;20067;-79
2023/04/07 07:20:08;;;;;;;13.50;5.40;;;9.70;99.90;;;;;;5053762;28;20079;-80
2023/04/07 07:22:33;;;;;;;14.63;6.47;;;9.80;99.90;;;;;;5036309;28;20110;-79
2023/04/07 07:24:59;;;;;;;10.63;5.43;;;9.80;99.90;;;;;;5035991;28;20484;-80
2023/04/07 07:27:25;;;;;;;10.70;5.13;;;9.80;99.90;;;;;;5019376;28;20476;-80
2023/04/07 07:29:50;;;;;;;14.73;6.17;;;9.90;99.90;;;;;;5053293;28;20132;-80
2023/04/07 07:32:16;;;;;;;11.43;4.97;;;9.90;99.90;;;;;;5036960;28;20112;-80
2023/04/07 07:34:42;;;;;;;10.07;4.80;;;10.00;99.90;;;;;;5016667;28;20058;-80
2023/04/07 07:37:07;;;;;;;11.30;4.97;;;10.00;99.90;;;;;;5052985;28;20024;-80
2023/04/07 07:39:33;;;;;;;12.27;4.83;;;10.10;99.90;;;;;;5035758;28;20190;-80
2023/04/07 07:42:00;;;;;;;11.50;5.53;;;10.10;99.90;;;;;;5036438;28;20038;-80
2023/04/07 07:44:26;;;;;;;10.77;4.83;;;10.20;99.90;;;;;;5032793;28;20075;-80
2023/04/07 07:46:51;;;;;;;12.27;4.87;;;10.20;99.90;;;;;;5033964;28;20477;-80
2023/04/07 07:49:17;;;;;;;8.17;3.87;;;10.20;99.90;;;;;;5032663;28;20477;-79
2023/04/07 07:51:44;;;;;;;8.83;4.03;;;10.30;99.90;;;;;;5033956;28;20104;-80
2023/04/07 07:54:10;;;;;;;9.70;4.10;;;10.40;99.90;;;;;;5032754;28;20472;-80
2023/04/07 07:56:36;;;;;;;8.23;4.00;;;10.40;99.90;;;;;;5015994;28;20034;-81
2023/04/07 07:59:05;;;;;;;13.03;4.70;;;10.40;99.90;;;;;;5028016;28;20033;-81
2023/04/07 08:01:31;;;;;;;10.80;4.27;;;10.40;99.90;;;;;;5052611;28;20025;-80
2023/04/07 08:03:57;;;;;;;8.17;3.87;;;10.40;99.90;;;;;;5051975;28;20056;-80
2023/04/07 08:06:22;;;;;;;13.57;5.57;;;10.50;99.90;;;;;;5052179;28;20068;-81
2023/04/07 08:08:48;;;;;;;13.90;4.90;;;10.50;99.90;;;;;;5041840;28;20084;-81
2023/04/07 08:11:14;;;;;;;18.67;5.90;;;10.50;99.90;;;;;;5016299;28;20029;-80
2023/04/07 08:13:44;;;;;;;11.27;4.97;;;10.50;99.90;;;;;;4999738;28;20549;-81
2023/04/07 08:16:10;;;;;;;8.97;4.83;;;10.50;99.90;;;;;;5028584;28;20026;-80
2023/04/07 08:18:36;;;;;;;12.77;5.10;;;10.50;99.90;;;;;;5023453;28;20032;-80
2023/04/07 08:21:04;;;;;;;11.60;5.20;;;10.50;99.90;;;;;;5029894;28;20030;-80
2023/04/07 08:23:30;;;;;;;9.70;4.90;;;10.50;99.90;;;;;;5036095;28;20025;-83
2023/04/07 08:25:56;;;;;;;10.47;4.90;;;10.60;99.90;;;;;;5021196;28;20120;-83
2023/04/07 08:28:24;;;;;;;10.13;4.30;;;10.60;99.90;;;;;;5035446;28;20489;-83
2023/04/07 08:30:50;;;;;;;11.23;4.50;;;10.60;99.90;;;;;;5049140;28;20021;-83
2023/04/07 08:33:16;;;;;;;9.03;4.57;;;10.60;99.90;;;;;;5031962;28;20090;-85
2023/04/07 08:35:41;;;;;;;12.30;4.87;;;10.60;99.90;;;;;;5032332;28;20049;-84
2023/04/07 08:38:08;;;;;;;11.17;4.40;;;10.70;99.90;;;;;;5033273;28;20028;-85
2023/04/07 08:40:34;;;;;;;12.43;5.10;;;10.60;99.90;;;;;;5037677;28;20486;-79
2023/04/07 08:43:03;;;;;;;10.43;4.77;;;10.70;99.90;;;;;;5049154;28;20028;-79
2023/04/07 08:45:30;;;;;;;13.30;4.60;;;10.70;99.90;;;;;;5035777;28;20048;-80
2023/04/07 08:48:01;;;;;;;8.53;5.13;;;10.70;99.90;;;;;;5051443;28;20025;-80
2023/04/07 08:50:27;;;;;;;16.93;6.63;;;10.70;99.90;;;;;;5040320;28;20021;-81
2023/04/07 08:52:55;;;;;;;13.87;5.40;;;10.70;99.90;;;;;;5043066;28;20401;-81
2023/04/07 08:55:21;;;;;;;16.40;5.87;;;10.70;99.90;;;;;;5031696;28;20136;-80
2023/04/07 08:57:47;;;;;;;13.90;6.77;;;10.70;99.90;;;;;;5036154;28;20037;-80
2023/04/07 09:00:14;;;;;;;19.17;6.60;;;10.70;99.90;;;;;;5031513;28;20021;-81
2023/04/07 09:02:44;;;;;;;13.90;6.10;;;10.70;99.90;;;;;;5031605;28;20370;-80
2023/04/07 09:05:13;;;;;;;12.50;6.20;;;10.70;99.90;;;;;;5045016;28;20056;-80
2023/04/07 09:07:44;;;;;;;9.83;5.37;;;10.70;99.90;;;;;;5037885;28;20025;-82
2023/04/07 09:10:10;;;;;;;15.33;6.00;;;10.70;99.90;;;;;;5016152;28;20033;-83
2023/04/07 09:12:37;;;;;;;11.60;5.43;;;10.70;99.90;;;;;;5031736;28;20029;-82
2023/04/07 09:15:05;;;;;;;13.90;6.27;;;10.70;99.90;;;;;;5015347;28;20033;-83
2023/04/07 09:17:30;;;;;;;15.03;6.93;;;10.70;99.90;;;;;;5036060;28;20021;-84
2023/04/07 09:19:57;;;;;;;11.87;6.63;;;10.60;99.90;;;;;;5035751;28;20096;-83
2023/04/07 09:22:46;;;;;;;15.13;6.70;;;10.60;99.90;;;;;;5029178;28;20025;-83
2023/04/07 09:25:18;;;;;;;13.73;6.63;;;10.60;99.90;;;;;;5054632;28;20111;-85
2023/04/07 09:27:58;;;;;;;13.33;5.73;;;10.60;99.90;;;;;;5054839;28;20036;-83
2023/04/07 09:30:24;;;;;;;12.43;5.40;;;10.60;99.90;;;;;;5038849;28;20033;-85
2023/04/07 09:32:50;;;;;;;10.47;5.23;;;10.60;99.90;;;;;;5044772;28;20025;-84
2023/04/07 09:35:16;;;;;;;9.33;5.30;;;10.70;99.90;;;;;;5054464;28;20064;-84
2023/04/07 09:37:43;;;;;;;10.67;4.53;;;10.70;99.90;;;;;;5055447;28;20028;-84
2023/04/07 09:40:09;;;;;;;10.53;4.73;;;10.80;99.90;;;;;;5048695;28;20018;-85
2023/04/07 09:42:43;;;;;;;11.98;5.50;;;10.80;99.90;;;;;;5035721;28;20017;-83
2023/04/07 09:45:12;;;;;;;11.23;4.25;;;10.80;99.90;;;;;;5035251;28;20021;-83
2023/04/07 09:47:38;;;;;;;10.97;5.20;;;10.90;99.90;;;;;;5035108;28;20558;-83
2023/04/07 09:50:05;;;;;;;12.15;5.25;;;10.90;99.90;;;;;;5019369;28;20037;-85
2023/04/07 09:52:51;;;;;;;11.07;4.60;;;10.90;99.90;;;;;;5036590;28;20059;-84
2023/04/07 09:55:22;;;;;;;13.07;5.07;;;10.90;99.90;;;;;;5035080;28;20025;-83
2023/04/07 09:57:54;;;;;;;10.93;3.70;;;10.90;99.90;;;;;;5035079;28;20096;-83
2023/04/07 10:00:20;;;;;;;12.30;5.00;;;11.00;99.90;;;;;;5035385;28;20453;-83
2023/04/07 10:02:46;;;;;;;12.40;4.28;;;11.00;99.90;;;;;;5032543;28;20120;-82
2023/04/07 10:05:12;;;;;;;11.20;4.20;;;11.10;99.90;;;;;;5034266;28;20040;-82
2023/04/07 10:07:39;;;;;;;15.97;4.83;;;11.10;99.90;;;;;;5051887;28;20099;-81
2023/04/07 10:10:07;;;;;;;8.53;4.17;;;11.10;99.90;;;;;;5057891;28;20045;-82
2023/04/07 10:12:35;;;;;;;11.70;4.68;;;11.20;99.90;;;;;;5054224;28;20025;-82
2023/04/07 10:15:01;;;;;;;10.90;4.38;;;11.10;99.90;;;;;;5055296;28;20025;-82
2023/04/07 10:17:28;;;;;;;14.25;5.53;;;11.10;99.90;;;;;;5053930;28;20040;-82
2023/04/07 10:19:58;;;;;;;12.32;4.22;;;11.10;99.90;;;;;;5037525;28;20532;-82
2023/04/07 10:22:26;;;;;;;9.27;3.78;;;11.00;99.90;;;;;;5054245;28;20021;-83
2023/04/07 10:25:03;;;;;;;9.68;3.92;;;11.10;99.90;;;;;;5037798;28;20146;-83
2023/04/07 10:27:33;;;;;;;12.93;3.67;;;11.00;99.90;;;;;;5053560;28;20477;-83
2023/04/07 10:30:00;;;;;;;13.40;4.30;;;11.00;99.90;;;;;;5053834;28;20465;-83
2023/04/07 10:32:26;;;;;;;7.97;3.50;;;11.00;99.90;;;;;;5047815;28;20029;-82
2023/04/07 10:34:56;;;;;;;10.80;3.77;;;11.00;99.90;;;;;;5044311;28;20131;-82
2023/04/07 10:37:22;;;;;;;6.83;3.20;;;11.00;99.90;;;;;;5056989;28;20427;-83
2023/04/07 10:39:50;;;;;;;5.80;2.97;;;11.10;99.90;;;;;;5057345;28;20032;-83
2023/04/07 10:42:37;;;;;;;6.50;2.90;;;11.10;99.90;;;;;;5035205;28;20029;-85
2023/04/07 10:45:09;;;;;;;7.33;2.67;;;11.20;99.90;;;;;;5055182;28;20119;-82
2023/04/07 10:47:58;;;;;;;7.63;2.90;;;11.30;99.90;;;;;;5023471;28;20051;-82
2023/04/07 10:50:24;;;;;;;11.13;3.80;;;11.30;99.90;;;;;;5056494;28;20517;-80
2023/04/07 10:53:13;;;;;;;6.30;2.40;;;11.40;99.90;;;;;;5056732;28;20029;-82
2023/04/07 10:55:52;;;;;;;9.23;2.92;;;11.40;99.90;;;;;;5056837;28;20031;-82
2023/04/07 10:58:22;;;;;;;8.40;3.25;;;11.50;99.90;;;;;;5056679;28;20016;-81
2023/04/07 11:01:06;;;;;;;8.43;3.35;;;11.50;99.90;;;;;;5056652;28;20013;-85
2023/04/07 11:03:53;;;;;;;8.07;3.70;;;11.50;99.90;;;;;;5057016;28;20078;-83
2023/04/07 11:06:18;;;;;;;7.57;4.03;;;11.40;99.90;;;;;;5056339;28;20021;-81
2023/04/07 11:08:46;;;;;;;12.02;4.18;;;11.40;99.90;;;;;;5039908;28;20024;-84
2023/04/07 11:11:16;;;;;;;9.70;4.05;;;11.40;99.90;;;;;;5054717;28;20016;-82
2023/04/07 11:13:43;;;;;;;6.43;3.42;;;11.30;99.90;;;;;;5056368;28;20025;-81
2023/04/07 11:16:09;;;;;;;9.20;3.67;;;11.30;99.90;;;;;;5056376;28;20031;-82
2023/04/07 11:18:36;;;;;;;7.82;3.38;;;11.30;99.90;;;;;;5056200;28;20021;-82
2023/04/07 11:21:02;;;;;;;9.65;3.20;;;11.30;99.90;;;;;;5056523;28;20025;-81
2023/04/07 11:23:28;;;;;;;7.83;2.97;;;11.30;99.90;;;;;;5039604;28;20044;-82
2023/04/07 11:26:01;;;;;;;12.85;3.38;;;11.30;99.90;;;;;;5039481;28;20029;-83
2023/04/07 11:28:28;;;;;;;8.13;3.92;;;11.30;99.90;;;;;;5056347;28;20052;-82
2023/04/07 11:30:55;;;;;;;9.77;3.38;;;11.30;99.90;;;;;;5056322;28;20061;-80
2023/04/07 11:33:22;;;;;;;8.13;3.75;;;11.30;99.90;;;;;;5039550;28;20048;-79
2023/04/07 11:35:50;;;;;;;13.57;3.80;;;11.30;99.90;;;;;;5040192;28;20045;-80
2023/04/07 11:38:17;;;;;;;8.90;3.78;;;11.30;99.90;;;;;;5019858;28;20049;-81
2023/04/07 11:40:42;;;;;;;11.77;4.40;;;11.30;99.90;;;;;;5019441;28;20071;-80
2023/04/07 11:43:33;;;;;;;12.07;4.63;;;11.30;99.90;;;;;;5019805;28;20029;-80
2023/04/07 11:46:12;;;;;;;8.88;4.25;;;11.30;99.90;;;;;;5023532;28;20032;-80
2023/04/07 11:48:40;;;;;;;12.18;4.00;;;11.20;99.90;;;;;;5035899;28;20021;-81
2023/04/07 11:51:15;;;;;;;10.50;4.37;;;11.20;99.90;;;;;;5035822;28;20106;-82
2023/04/07 11:53:40;;;;;;;12.23;5.60;;;11.20;99.90;;;;;;5036163;28;20107;-82
2023/04/07 11:56:09;;;;;;;11.37;4.97;;;11.20;99.90;;;;;;5035690;28;20112;-82
2023/04/07 11:58:38;;;;;;;15.15;4.95;;;11.20;99.90;;;;;;5035749;28;20373;-81
2023/04/07 12:01:08;;;;;;;10.80;4.78;;;11.20;99.90;;;;;;5035636;28;20025;-81
2023/04/07 12:03:37;;;;;;;11.23;4.60;;;11.10;99.90;;;;;;5035781;28;20036;-80
2023/04/07 12:06:03;;;;;;;11.67;4.80;;;11.10;99.90;;;;;;5035649;28;20032;-81
2023/04/07 12:08:40;;;;;;;12.57;4.07;;;11.10;99.90;;;;;;5085527;28;20028;-81
2023/04/07 12:11:06;;;;;;;11.90;4.60;;;11.20;99.90;;;;;;5055339;28;20017;-82
2023/04/07 12:13:33;;;;;;;10.33;4.10;;;11.20;99.90;;;;;;5073099;28;20491;-81
2023/04/07 12:15:59;;;;;;;9.23;4.50;;;11.30;99.90;;;;;;5038505;28;20525;-80
2023/04/07 12:18:25;;;;;;;10.13;4.35;;;11.30;99.90;;;;;;5055155;28;20028;-81
2023/04/07 12:20:51;;;;;;;9.95;4.45;;;11.30;99.90;;;;;;5038725;28;20020;-84
2023/04/07 12:23:17;;;;;;;8.85;3.65;;;11.40;99.90;;;;;;5055452;28;20021;-84
2023/04/07 12:25:43;;;;;;;11.18;4.68;;;11.40;99.90;;;;;;5038723;28;20051;-82
2023/04/07 12:28:08;;;;;;;8.52;3.63;;;11.40;99.90;;;;;;5038978;28;20028;-83
2023/04/07 12:30:35;;;;;;;12.30;4.57;;;11.40;99.90;;;;;;5038726;28;20514;-82
2023/04/07 12:33:02;;;;;;;11.02;4.32;;;11.40;99.90;;;;;;5038505;28;20028;-84
2023/04/07 12:35:29;;;;;;;9.07;4.40;;;11.40;99.90;;;;;;5055071;28;20044;-81
2023/04/07 12:37:55;;;;;;;14.77;4.88;;;11.50;99.90;;;;;;5055574;28;20028;-83
2023/04/07 12:40:25;;;;;;;9.80;3.78;;;11.50;99.90;;;;;;5039056;28;20071;-81